»·PEaware :: DAL1724 KSLC-KSEA

DAL1724 :: KSLC-KSEA

FLIGHT INFORMATION

Flight Status: Arrived
Operator:
Delta Air Lines
More flights by this operator :: More flights under this callsign
Pilot: Ernest M. (83)
Aircraft: BOEING 737-800
(B738)
More flights by this aircraft type
Origin: KSLC Salt Lake City Intl
United States
Destination: KSEA Seattle-Tacoma Intl
United States
More flights between these airports :: More routes between these airports
Route: +CGULL1 TWF PDT CHINS4
File this flight plan on PilotEdge
Remarks:
Altitude:
(Current/Filed)
32,000ft
Speed:
(Current/Filed)
300kts
Departed: 21-Nov-20 08:42 PM
Arrived: 21-Nov-20 10:25 PM
Distance/Time
Traveled:
597nm/1:43
Distance/Time
To Go:
Arrived

Flight Plot

Page will automatically refresh every two minutes.

Flight plan parsing failed; only flown route is shown


Map Options




Map Legend


Flown Route
Filed Route
Departure Airport
Arrival Airport
Navaid (VOR, NDB)
Fix

Horizontal Profiles

Position Reports

Time Latitude Longitude Heading Altitude Ground
Speed
21-Nov-20 19:55 40.788529 -111.980852 282 4224ft 0kts
21-Nov-20 19:56 40.788529 -111.980852 282 4224ft 0kts
21-Nov-20 19:57 40.788529 -111.980852 282 4224ft 0kts
21-Nov-20 19:58 40.788529 -111.980852 282 4224ft 0kts
21-Nov-20 19:59 40.788529 -111.980852 282 4224ft 0kts
21-Nov-20 20:00 40.788529 -111.980852 282 4224ft 0kts
21-Nov-20 20:01 40.788529 -111.980852 282 4224ft 0kts
21-Nov-20 20:02 40.788529 -111.980852 282 4224ft 0kts
21-Nov-20 20:03 40.788529 -111.980852 282 4224ft 0kts
21-Nov-20 20:04 40.788529 -111.980852 282 4224ft 0kts
21-Nov-20 20:05 40.788529 -111.980852 282 4224ft 0kts
21-Nov-20 20:06 40.788529 -111.980852 282 4224ft 0kts
21-Nov-20 20:06 40.788529 -111.980852 282 4224ft 0kts
21-Nov-20 20:07 40.788529 -111.980852 282 4224ft 0kts
21-Nov-20 20:08 40.788529 -111.980852 282 4224ft 0kts
21-Nov-20 20:09 40.788529 -111.980852 282 4224ft 0kts
21-Nov-20 20:10 40.788529 -111.980852 282 4224ft 0kts
21-Nov-20 20:11 40.788529 -111.980852 282 4224ft 0kts
21-Nov-20 20:12 40.788529 -111.980852 282 4224ft 0kts
21-Nov-20 20:13 40.788529 -111.980852 282 4224ft 0kts
21-Nov-20 20:14 40.788529 -111.980852 282 4224ft 0kts
21-Nov-20 20:15 40.788529 -111.980852 282 4224ft 0kts
21-Nov-20 20:16 40.788529 -111.980852 282 4224ft 0kts
21-Nov-20 20:17 40.788529 -111.980852 282 4224ft 0kts
21-Nov-20 20:18 40.788529 -111.980852 282 4224ft 0kts
21-Nov-20 20:19 40.788529 -111.980852 282 4224ft 0kts
21-Nov-20 20:20 40.788529 -111.980852 282 4224ft 0kts
21-Nov-20 20:21 40.785565 -111.978041 227 4226ft 0kts
21-Nov-20 20:22 40.785565 -111.978041 227 4226ft 0kts
21-Nov-20 20:23 40.785565 -111.978041 227 4226ft 0kts
21-Nov-20 20:24 40.785565 -111.978041 227 4226ft 0kts
21-Nov-20 20:25 40.785797 -111.978233 348 4226ft 3kts
21-Nov-20 20:26 40.785952 -111.978161 22 4225ft 0kts
21-Nov-20 20:27 40.785952 -111.978161 22 4225ft 0kts
21-Nov-20 20:28 40.785952 -111.978161 22 4225ft 0kts
21-Nov-20 20:29 40.786289 -111.977057 88 4225ft 4kts
21-Nov-20 20:30 40.786493 -111.976271 353 4224ft 2kts
21-Nov-20 20:31 40.787581 -111.976488 351 4224ft 9kts
21-Nov-20 20:32 40.790876 -111.977118 351 4223ft 9kts
21-Nov-20 20:33 40.792635 -111.977458 351 4222ft 3kts
21-Nov-20 20:34 40.795188 -111.977702 356 4224ft 9kts
21-Nov-20 20:35 40.798583 -111.978043 355 4225ft 13kts
21-Nov-20 20:36 40.801043 -111.978374 354 4229ft 10kts
21-Nov-20 20:37 40.803374 -111.978657 354 4230ft 6kts
21-Nov-20 20:38 40.804938 -111.978844 354 4227ft 9kts
21-Nov-20 20:39 40.807122 -111.978933 33 4227ft 1kts
21-Nov-20 20:40 40.806031 -111.976772 176 4229ft 34kts
21-Nov-20 20:41 40.766333 -111.972273 175 4758ft 206kts
21-Nov-20 20:42 40.722292 -111.998110 246 5621ft 180kts
21-Nov-20 20:43 40.736117 -112.068764 306 7969ft 231kts
21-Nov-20 20:44 40.778021 -112.139826 315 10877ft 260kts
21-Nov-20 20:45 40.831600 -112.207671 313 13394ft 293kts
21-Nov-20 20:46 40.889093 -112.286876 316 16340ft 307kts
21-Nov-20 20:47 40.950557 -112.366503 318 19167ft 314kts
21-Nov-20 20:48 41.022025 -112.433712 335 21576ft 323kts
21-Nov-20 20:49 41.108413 -112.473758 339 23493ft 341kts
21-Nov-20 20:50 41.199758 -112.536798 323 23619ft 404kts
21-Nov-20 20:51 41.293795 -112.635746 321 23528ft 441kts
21-Nov-20 20:52 41.365630 -112.748423 305 23352ft 365kts
21-Nov-20 20:53 41.427381 -112.855051 311 24991ft 367kts
21-Nov-20 20:54 41.496555 -112.958668 312 26731ft 381kts
21-Nov-20 20:55 41.568177 -113.065719 312 28355ft 392kts
21-Nov-20 20:56 41.642035 -113.175049 312 29927ft 401kts
21-Nov-20 20:57 41.717807 -113.285730 312 31336ft 409kts
21-Nov-20 20:58 41.795317 -113.397542 312 32430ft 403kts
21-Nov-20 20:59 41.873077 -113.510340 311 32488ft 422kts
21-Nov-20 21:00 41.951186 -113.626492 311 32488ft 419kts
21-Nov-20 21:01 42.029193 -113.742565 311 32492ft 420kts
21-Nov-20 21:02 42.107575 -113.859172 311 32493ft 420kts
21-Nov-20 21:03 42.186930 -113.977133 311 32524ft 428kts
21-Nov-20 21:04 42.265376 -114.097086 307 32496ft 426kts
21-Nov-20 21:05 42.339317 -114.222082 309 32501ft 426kts
21-Nov-20 21:06 42.414003 -114.346103 309 32496ft 425kts
21-Nov-20 21:07 42.488791 -114.470279 309 32500ft 426kts
21-Nov-20 21:08 42.565617 -114.591972 313 32504ft 426kts
21-Nov-20 21:09 42.651112 -114.703688 316 32497ft 427kts
21-Nov-20 21:10 42.739220 -114.811420 317 32493ft 427kts
21-Nov-20 21:11 42.826748 -114.920020 315 32492ft 427kts
21-Nov-20 21:12 42.912336 -115.032646 315 32494ft 428kts
21-Nov-20 21:13 42.997414 -115.145279 315 32496ft 427kts
21-Nov-20 21:14 43.081906 -115.258841 315 32498ft 426kts
21-Nov-20 21:15 43.166210 -115.372490 315 32503ft 426kts
21-Nov-20 21:16 43.250794 -115.486472 315 32502ft 426kts
21-Nov-20 21:17 43.335018 -115.599920 315 32501ft 426kts
21-Nov-20 21:18 43.419802 -115.714186 315 32505ft 426kts
21-Nov-20 21:19 43.504338 -115.828187 315 32508ft 426kts
21-Nov-20 21:20 43.588924 -115.942190 315 32512ft 426kts
21-Nov-20 21:21 43.673707 -116.056399 315 32511ft 426kts
21-Nov-20 21:22 43.758625 -116.170738 315 32510ft 426kts
21-Nov-20 21:23 43.843499 -116.284972 315 32513ft 426kts
21-Nov-20 21:24 43.928425 -116.399241 316 32520ft 426kts
21-Nov-20 21:25 44.013346 -116.513428 316 32524ft 426kts
21-Nov-20 21:26 44.098426 -116.627780 316 32527ft 426kts
21-Nov-20 21:27 44.183992 -116.742441 315 32542ft 426kts
21-Nov-20 21:28 44.269272 -116.856439 315 32542ft 426kts
21-Nov-20 21:29 44.355325 -116.971106 316 32541ft 430kts
21-Nov-20 21:30 44.442768 -117.086645 316 32539ft 435kts
21-Nov-20 21:31 44.533569 -117.201530 315 32517ft 441kts
21-Nov-20 21:32 44.623473 -117.318363 315 32489ft 441kts
21-Nov-20 21:33 44.712453 -117.437186 313 32474ft 441kts
21-Nov-20 21:34 44.799080 -117.558225 313 32472ft 441kts
21-Nov-20 21:35 44.884274 -117.682229 311 32476ft 440kts
21-Nov-20 21:36 44.967770 -117.807875 311 32475ft 440kts
21-Nov-20 21:37 45.050993 -117.932827 311 32461ft 433kts
21-Nov-20 21:38 45.132890 -118.055823 311 32448ft 427kts
21-Nov-20 21:39 45.213727 -118.178944 309 32448ft 427kts
21-Nov-20 21:40 45.291859 -118.305622 309 32447ft 427kts
21-Nov-20 21:41 45.369651 -118.433696 308 32431ft 427kts
21-Nov-20 21:43 45.446174 -118.562468 309 32410ft 426kts
21-Nov-20 21:44 45.522810 -118.691412 308 32414ft 426kts
21-Nov-20 21:45 45.599380 -118.820316 308 32412ft 427kts
21-Nov-20 21:46 45.680485 -118.944911 312 32413ft 432kts
21-Nov-20 21:47 45.767120 -119.065381 312 32413ft 437kts
21-Nov-20 21:48 45.853716 -119.187391 312 32424ft 435kts
21-Nov-20 21:49 45.938411 -119.310874 310 32427ft 434kts
21-Nov-20 21:50 46.020148 -119.438941 308 32445ft 434kts
21-Nov-20 21:51 46.095710 -119.571087 306 30205ft 423kts
21-Nov-20 21:52 46.168922 -119.699821 305 27758ft 410kts
21-Nov-20 21:53 46.240442 -119.824890 306 25356ft 400kts
21-Nov-20 21:54 46.309929 -119.946967 304 23030ft 389kts
21-Nov-20 21:55 46.375608 -120.070861 304 22833ft 387kts
21-Nov-20 21:56 46.441237 -120.194618 304 22838ft 388kts
21-Nov-20 21:57 46.506922 -120.318466 304 22838ft 388kts
21-Nov-20 21:58 46.572831 -120.442721 304 22838ft 388kts
21-Nov-20 21:59 46.638608 -120.566730 304 22728ft 386kts
21-Nov-20 21:59 46.692974 -120.669428 304 20925ft 380kts
21-Nov-20 22:01 46.766738 -120.810147 304 18424ft 368kts
21-Nov-20 22:01 46.817240 -120.908276 302 16688ft 360kts
21-Nov-20 22:03 46.882850 -121.048571 300 16306ft 359kts
21-Nov-20 22:03 46.927315 -121.150822 298 16301ft 355kts
21-Nov-20 22:04 46.977419 -121.273758 297 16087ft 334kts
21-Nov-20 22:06 47.032069 -121.404768 298 16040ft 325kts
21-Nov-20 22:06 47.071411 -121.498433 298 16011ft 323kts
21-Nov-20 22:07 47.119969 -121.610288 299 16010ft 324kts
21-Nov-20 22:08 47.168553 -121.721460 298 15286ft 324kts
21-Nov-20 22:09 47.216435 -121.831544 298 14420ft 318kts
21-Nov-20 22:10 47.262950 -121.939250 298 12728ft 309kts
21-Nov-20 22:11 47.309047 -122.043112 300 11958ft 284kts
21-Nov-20 22:12 47.376732 -122.102753 335 11141ft 289kts
21-Nov-20 22:13 47.450173 -122.145869 335 9702ft 279kts
21-Nov-20 22:14 47.520854 -122.188136 336 8293ft 270kts
21-Nov-20 22:15 47.592009 -122.196574 355 7679ft 236kts
21-Nov-20 22:16 47.656310 -122.206974 334 6476ft 230kts
21-Nov-20 22:17 47.679928 -122.287080 275 5246ft 225kts
21-Nov-20 22:18 47.656312 -122.366236 201 4066ft 235kts
21-Nov-20 22:19 47.600154 -122.335157 140 3859ft 198kts
21-Nov-20 22:20 47.553824 -122.305898 178 2849ft 176kts
21-Nov-20 22:21 47.508509 -122.307543 181 1508ft 148kts
21-Nov-20 22:22 47.474494 -122.307809 180 758ft 139kts
21-Nov-20 22:23 47.439202 -122.308005 179 370ft 69kts
21-Nov-20 22:24 47.436277 -122.306759 60 356ft 0kts
21-Nov-20 22:25 47.438286 -122.306393 0 369ft 18kts
21-Nov-20 22:26 47.441292 -122.304327 87 381ft 0kts
21-Nov-20 22:27 47.441292 -122.304327 87 381ft 0kts
21-Nov-20 22:28 47.441292 -122.304327 87 381ft 0kts
21-Nov-20 22:29 47.441292 -122.304327 87 381ft 0kts
21-Nov-20 22:30 47.441292 -122.304327 87 381ft 0kts
21-Nov-20 22:31 47.441292 -122.304327 87 381ft 0kts
21-Nov-20 22:32 47.441292 -122.304327 87 381ft 0kts
21-Nov-20 22:33 47.441292 -122.304327 87 381ft 0kts

Navigation Log

Ident Type
Flight plan parsing failed, navigation log unavailable